CCA917 ZBAA-ZSSS
Flight info
| Callsign | CCA917 |
|---|---|
| Flight time | 1h 24m |
| Altitude | 35100 |
| Route | ELKU2G ELKUR W40 YQG W142 DALIM A593 DPX A470 DALNU W166 ZJ W167 SASAN R343 PK |
| Aircraft | MD11/H-SDE1E2E3FGHIJ2J3J4J5M1RWXY/LB1D1 |
Departure
| Time | 2026-05-05 11:57 |
|---|---|
| Airport | Beijing Capital International Airport (ZBAA) |
Arrival
| Time | 2026-05-05 13:21 |
|---|---|
| Airport | Shanghai Hongqiao International Airport (ZSSS) |
| Time | Latitude | Longitude | Altitude | Speed | Heading |
|---|---|---|---|---|---|
| 2026-05-05 11:28 | 40.05633 | 116.61063 | 125 ft | 0 kts | 248° |
| 2026-05-05 11:42 | 40.05639 | 116.61083 | 131 ft | 4 kts | 248° |
| 2026-05-05 11:42 | 40.05649 | 116.61115 | 123 ft | 4 kts | 248° |
| 2026-05-05 11:43 | 40.05658 | 116.61146 | 126 ft | 4 kts | 264° |
| 2026-05-05 11:43 | 40.05653 | 116.61177 | 124 ft | 4 kts | 309° |
| 2026-05-05 11:43 | 40.05633 | 116.61200 | 125 ft | 4 kts | 328° |
| 2026-05-05 11:43 | 40.05622 | 116.61209 | 126 ft | 0 kts | 328° |
| 2026-05-05 11:46 | 40.05623 | 116.61208 | 126 ft | 0 kts | 328° |
| 2026-05-05 11:47 | 40.05632 | 116.61201 | 125 ft | 5 kts | 328° |
| 2026-05-05 11:47 | 40.05696 | 116.61171 | 127 ft | 12 kts | 350° |
| 2026-05-05 11:48 | 40.05869 | 116.61145 | 128 ft | 17 kts | 354° |
| 2026-05-05 11:48 | 40.05987 | 116.61125 | 128 ft | 17 kts | 354° |
| 2026-05-05 11:48 | 40.06097 | 116.61108 | 127 ft | 15 kts | 353° |
| 2026-05-05 11:49 | 40.06196 | 116.61090 | 130 ft | 13 kts | 350° |
| 2026-05-05 11:49 | 40.06285 | 116.61077 | 128 ft | 10 kts | 354° |
| 2026-05-05 11:49 | 40.06332 | 116.61037 | 127 ft | 9 kts | 298° |
| 2026-05-05 11:49 | 40.06332 | 116.60944 | 127 ft | 12 kts | 262° |
| 2026-05-05 11:50 | 40.06319 | 116.60809 | 129 ft | 18 kts | 262° |
| 2026-05-05 11:50 | 40.06302 | 116.60629 | 130 ft | 23 kts | 263° |
| 2026-05-05 11:50 | 40.06282 | 116.60419 | 131 ft | 23 kts | 263° |
| 2026-05-05 11:50 | 40.06265 | 116.60231 | 127 ft | 14 kts | 264° |
| 2026-05-05 11:51 | 40.06278 | 116.60155 | 128 ft | 8 kts | 311° |
| 2026-05-05 11:51 | 40.06344 | 116.60125 | 128 ft | 13 kts | 354° |
| 2026-05-05 11:51 | 40.06449 | 116.60109 | 128 ft | 18 kts | 353° |
| 2026-05-05 11:51 | 40.06592 | 116.60087 | 128 ft | 23 kts | 353° |
| 2026-05-05 11:52 | 40.06770 | 116.60059 | 128 ft | 28 kts | 353° |
| 2026-05-05 11:52 | 40.06971 | 116.60027 | 130 ft | 29 kts | 353° |
| 2026-05-05 11:52 | 40.07165 | 116.59996 | 130 ft | 27 kts | 353° |
| 2026-05-05 11:52 | 40.07346 | 116.59969 | 132 ft | 27 kts | 353° |
| 2026-05-05 11:53 | 40.07547 | 116.59937 | 129 ft | 31 kts | 353° |
| 2026-05-05 11:53 | 40.07777 | 116.59901 | 126 ft | 31 kts | 353° |
| 2026-05-05 11:53 | 40.07982 | 116.59869 | 128 ft | 29 kts | 354° |
| 2026-05-05 11:53 | 40.08173 | 116.59841 | 124 ft | 26 kts | 353° |
| 2026-05-05 11:54 | 40.08348 | 116.59812 | 129 ft | 24 kts | 352° |
| 2026-05-05 11:54 | 40.08508 | 116.59788 | 127 ft | 22 kts | 354° |
| 2026-05-05 11:54 | 40.08654 | 116.59764 | 124 ft | 20 kts | 353° |
| 2026-05-05 11:54 | 40.08788 | 116.59743 | 132 ft | 18 kts | 353° |
| 2026-05-05 11:55 | 40.08871 | 116.59719 | 129 ft | 9 kts | 328° |
| 2026-05-05 11:55 | 40.08890 | 116.59660 | 130 ft | 8 kts | 270° |
| 2026-05-05 11:55 | 40.08882 | 116.59583 | 129 ft | 10 kts | 262° |
| 2026-05-05 11:55 | 40.08851 | 116.59518 | 130 ft | 7 kts | 214° |
| 2026-05-05 11:56 | 40.08799 | 116.59506 | 130 ft | 9 kts | 173° |
| 2026-05-05 11:56 | 40.08741 | 116.59516 | 128 ft | 13 kts | 171° |
| 2026-05-05 11:56 | 40.08444 | 116.59569 | 130 ft | 87 kts | 173° |
| 2026-05-05 11:56 | 40.07546 | 116.59704 | 149 ft | 166 kts | 174° |
| 2026-05-05 11:57 | 40.06365 | 116.59886 | 974 ft | 169 kts | 174° |
| 2026-05-05 11:57 | 40.05302 | 116.60069 | 2422 ft | 150 kts | 179° |
| 2026-05-05 11:57 | 40.04262 | 116.60232 | 3485 ft | 154 kts | 179° |
| 2026-05-05 11:57 | 40.03065 | 116.60403 | 3858 ft | 200 kts | 179° |
| 2026-05-05 11:58 | 40.01544 | 116.60623 | 4061 ft | 237 kts | 178° |
| 2026-05-05 11:58 | 39.99882 | 116.60885 | 4961 ft | 243 kts | 177° |
| 2026-05-05 11:58 | 39.98183 | 116.61159 | 6083 ft | 249 kts | 177° |
| 2026-05-05 11:58 | 39.96429 | 116.61439 | 7025 ft | 259 kts | 177° |
| 2026-05-05 11:59 | 39.94610 | 116.61729 | 7953 ft | 268 kts | 177° |
| 2026-05-05 11:59 | 39.92726 | 116.62028 | 8906 ft | 277 kts | 176° |
| 2026-05-05 11:59 | 39.90784 | 116.62337 | 9808 ft | 285 kts | 176° |
| 2026-05-05 11:59 | 39.88761 | 116.62656 | 10372 ft | 308 kts | 176° |
| 2026-05-05 12:00 | 39.86512 | 116.63003 | 10514 ft | 343 kts | 176° |
| 2026-05-05 12:00 | 39.84050 | 116.63337 | 10950 ft | 363 kts | 178° |
| 2026-05-05 12:00 | 39.81502 | 116.63678 | 11800 ft | 372 kts | 176° |
| 2026-05-05 12:00 | 39.78904 | 116.64069 | 12700 ft | 379 kts | 176° |
| 2026-05-05 12:01 | 39.76264 | 116.64484 | 13582 ft | 385 kts | 176° |
| 2026-05-05 12:01 | 39.73621 | 116.64906 | 14376 ft | 390 kts | 176° |
| 2026-05-05 12:01 | 39.70917 | 116.65338 | 15179 ft | 394 kts | 176° |
| 2026-05-05 12:01 | 39.68182 | 116.65773 | 15974 ft | 398 kts | 176° |
| 2026-05-05 12:02 | 39.65422 | 116.66267 | 16747 ft | 402 kts | 174° |
| 2026-05-05 12:02 | 39.62646 | 116.66914 | 17497 ft | 407 kts | 172° |
| 2026-05-05 12:02 | 39.59903 | 116.67624 | 18213 ft | 411 kts | 172° |
| 2026-05-05 12:02 | 39.57086 | 116.68379 | 18846 ft | 415 kts | 171° |
| 2026-05-05 12:03 | 39.54274 | 116.69315 | 19376 ft | 422 kts | 163° |
| 2026-05-05 12:03 | 39.51562 | 116.70841 | 19968 ft | 428 kts | 156° |
| 2026-05-05 12:03 | 39.48918 | 116.72681 | 20543 ft | 433 kts | 154° |
| 2026-05-05 12:03 | 39.46267 | 116.74459 | 21113 ft | 436 kts | 157° |
| 2026-05-05 12:04 | 39.43468 | 116.76147 | 21713 ft | 440 kts | 158° |
| 2026-05-05 12:04 | 39.40700 | 116.77760 | 22315 ft | 444 kts | 159° |
| 2026-05-05 12:04 | 39.37864 | 116.79414 | 22929 ft | 449 kts | 158° |
| 2026-05-05 12:04 | 39.35005 | 116.81101 | 23495 ft | 454 kts | 158° |
| 2026-05-05 12:05 | 39.32119 | 116.82823 | 24040 ft | 458 kts | 158° |
| 2026-05-05 12:05 | 39.29219 | 116.84567 | 24586 ft | 462 kts | 158° |
| 2026-05-05 12:05 | 39.26286 | 116.86337 | 25143 ft | 467 kts | 158° |
| 2026-05-05 12:05 | 39.23330 | 116.88123 | 25685 ft | 472 kts | 158° |
| 2026-05-05 12:06 | 39.20338 | 116.89920 | 26215 ft | 476 kts | 159° |
| 2026-05-05 12:06 | 39.17250 | 116.91498 | 26742 ft | 478 kts | 166° |
| 2026-05-05 12:06 | 39.14013 | 116.92438 | 27254 ft | 477 kts | 177° |
| 2026-05-05 12:06 | 39.10708 | 116.92491 | 27768 ft | 475 kts | 190° |
| 2026-05-05 12:07 | 39.07491 | 116.91628 | 28274 ft | 472 kts | 202° |
| 2026-05-05 12:07 | 39.04458 | 116.90121 | 28764 ft | 473 kts | 208° |
| 2026-05-05 12:07 | 39.01466 | 116.88311 | 29280 ft | 476 kts | 210° |
| 2026-05-05 12:07 | 38.98485 | 116.86422 | 29764 ft | 480 kts | 210° |
| 2026-05-05 12:08 | 38.95471 | 116.84538 | 30161 ft | 483 kts | 210° |
| 2026-05-05 12:08 | 38.92418 | 116.82687 | 30534 ft | 487 kts | 209° |
| 2026-05-05 12:08 | 38.89317 | 116.80859 | 30925 ft | 490 kts | 209° |
| 2026-05-05 12:08 | 38.86215 | 116.79066 | 31397 ft | 489 kts | 209° |
| 2026-05-05 12:09 | 38.83107 | 116.77291 | 31880 ft | 489 kts | 208° |
| 2026-05-05 12:09 | 38.79994 | 116.75525 | 32354 ft | 488 kts | 209° |
| 2026-05-05 12:09 | 38.76890 | 116.73766 | 32765 ft | 488 kts | 209° |
| 2026-05-05 12:09 | 38.73787 | 116.72006 | 33180 ft | 488 kts | 209° |
| 2026-05-05 12:10 | 38.70678 | 116.70241 | 33602 ft | 488 kts | 209° |
| 2026-05-05 12:10 | 38.67575 | 116.68480 | 33965 ft | 488 kts | 209° |
| 2026-05-05 12:10 | 38.64419 | 116.66862 | 34314 ft | 491 kts | 203° |
| 2026-05-05 12:10 | 38.61077 | 116.65820 | 34647 ft | 498 kts | 194° |
| 2026-05-05 12:11 | 38.57614 | 116.65275 | 34756 ft | 504 kts | 190° |
| 2026-05-05 12:11 | 38.54149 | 116.64971 | 34785 ft | 506 kts | 188° |
| 2026-05-05 12:11 | 38.47103 | 116.64448 | 34797 ft | 506 kts | 189° |
| 2026-05-05 12:12 | 38.40093 | 116.63756 | 34800 ft | 505 kts | 190° |
| 2026-05-05 12:12 | 38.33090 | 116.62955 | 34804 ft | 507 kts | 190° |
| 2026-05-05 12:13 | 38.25997 | 116.63125 | 34807 ft | 517 kts | 174° |
| 2026-05-05 12:13 | 38.20199 | 116.65118 | 34809 ft | 522 kts | 164° |
| 2026-05-05 12:14 | 38.13323 | 116.68151 | 34809 ft | 523 kts | 164° |
| 2026-05-05 12:14 | 38.05262 | 116.71452 | 34816 ft | 523 kts | 166° |
| 2026-05-05 12:15 | 37.99468 | 116.73686 | 34818 ft | 523 kts | 166° |
| 2026-05-05 12:15 | 37.92495 | 116.76334 | 34824 ft | 523 kts | 166° |
| 2026-05-05 12:16 | 37.85525 | 116.78982 | 34827 ft | 523 kts | 166° |
| 2026-05-05 12:16 | 37.78553 | 116.81635 | 34827 ft | 523 kts | 166° |
| 2026-05-05 12:17 | 37.71586 | 116.84282 | 34823 ft | 523 kts | 166° |
| 2026-05-05 12:17 | 37.64601 | 116.86930 | 34828 ft | 524 kts | 166° |
| 2026-05-05 12:18 | 37.57670 | 116.89554 | 34839 ft | 522 kts | 166° |
| 2026-05-05 12:18 | 37.50707 | 116.92184 | 34847 ft | 522 kts | 166° |
| 2026-05-05 12:19 | 37.43739 | 116.94810 | 34848 ft | 523 kts | 166° |
| 2026-05-05 12:19 | 37.36756 | 116.97437 | 34844 ft | 523 kts | 166° |
| 2026-05-05 12:20 | 37.29776 | 117.00059 | 34850 ft | 523 kts | 166° |
| 2026-05-05 12:20 | 37.22921 | 117.03009 | 34849 ft | 525 kts | 162° |
| 2026-05-05 12:21 | 37.16075 | 117.06267 | 34855 ft | 526 kts | 161° |
| 2026-05-05 12:21 | 37.09222 | 117.09537 | 34866 ft | 526 kts | 161° |
| 2026-05-05 12:22 | 37.02366 | 117.12764 | 34884 ft | 526 kts | 162° |
| 2026-05-05 12:22 | 36.95503 | 117.15971 | 34878 ft | 527 kts | 161° |
| 2026-05-05 12:23 | 36.88633 | 117.19174 | 34883 ft | 527 kts | 161° |
| 2026-05-05 12:23 | 36.81694 | 117.21815 | 34883 ft | 522 kts | 174° |
| 2026-05-05 12:24 | 36.74511 | 117.22174 | 34891 ft | 515 kts | 186° |
| 2026-05-05 12:24 | 36.67327 | 117.21701 | 34894 ft | 518 kts | 186° |
| 2026-05-05 12:25 | 36.60109 | 117.21432 | 34912 ft | 519 kts | 185° |
| 2026-05-05 12:25 | 36.52880 | 117.21355 | 34918 ft | 519 kts | 184° |
| 2026-05-05 12:26 | 36.45637 | 117.21323 | 34927 ft | 520 kts | 184° |
| 2026-05-05 12:26 | 36.38456 | 117.22121 | 34936 ft | 526 kts | 169° |
| 2026-05-05 12:27 | 36.31428 | 117.24726 | 34940 ft | 528 kts | 163° |
| 2026-05-05 12:27 | 36.24462 | 117.27624 | 34941 ft | 529 kts | 163° |
| 2026-05-05 12:28 | 36.17440 | 117.30358 | 34941 ft | 529 kts | 165° |
| 2026-05-05 12:28 | 36.10384 | 117.32985 | 34944 ft | 529 kts | 165° |
| 2026-05-05 12:29 | 36.03376 | 117.35572 | 34944 ft | 529 kts | 165° |
| 2026-05-05 12:29 | 35.96314 | 117.38193 | 34944 ft | 530 kts | 165° |
| 2026-05-05 12:30 | 35.89245 | 117.40838 | 34949 ft | 530 kts | 165° |
| 2026-05-05 12:30 | 35.82181 | 117.43482 | 34944 ft | 530 kts | 165° |
| 2026-05-05 12:31 | 35.75112 | 117.46123 | 34952 ft | 531 kts | 164° |
| 2026-05-05 12:31 | 35.68029 | 117.48763 | 34969 ft | 531 kts | 164° |
| 2026-05-05 12:32 | 35.60959 | 117.51392 | 34973 ft | 531 kts | 164° |
| 2026-05-05 12:32 | 35.53883 | 117.54021 | 34972 ft | 531 kts | 164° |
| 2026-05-05 12:33 | 35.46851 | 117.56631 | 34972 ft | 531 kts | 164° |
| 2026-05-05 12:33 | 35.39773 | 117.59251 | 34973 ft | 531 kts | 164° |
| 2026-05-05 12:34 | 35.32694 | 117.61865 | 34973 ft | 531 kts | 164° |
| 2026-05-05 12:34 | 35.25620 | 117.64471 | 34982 ft | 531 kts | 164° |
| 2026-05-05 12:35 | 35.18540 | 117.67065 | 34986 ft | 531 kts | 164° |
| 2026-05-05 12:35 | 35.11454 | 117.69658 | 34987 ft | 531 kts | 164° |
| 2026-05-05 12:36 | 35.04372 | 117.72253 | 34987 ft | 531 kts | 164° |
| 2026-05-05 12:36 | 34.97292 | 117.74847 | 34991 ft | 531 kts | 164° |
| 2026-05-05 12:37 | 34.90212 | 117.77438 | 34992 ft | 531 kts | 164° |
| 2026-05-05 12:37 | 34.83126 | 117.80029 | 34982 ft | 531 kts | 164° |
| 2026-05-05 12:38 | 34.76039 | 117.82597 | 34992 ft | 532 kts | 163° |
| 2026-05-05 12:38 | 34.68986 | 117.85135 | 34996 ft | 532 kts | 164° |
| 2026-05-05 12:39 | 34.61890 | 117.87683 | 34998 ft | 532 kts | 164° |
| 2026-05-05 12:39 | 34.54800 | 117.90227 | 34998 ft | 532 kts | 163° |
| 2026-05-05 12:40 | 34.47728 | 117.92760 | 34998 ft | 532 kts | 163° |
| 2026-05-05 12:40 | 34.40688 | 117.95278 | 35000 ft | 532 kts | 163° |
| 2026-05-05 12:41 | 34.33595 | 117.97810 | 35001 ft | 532 kts | 163° |
| 2026-05-05 12:41 | 34.26489 | 118.00349 | 35003 ft | 532 kts | 163° |
| 2026-05-05 12:42 | 34.19443 | 118.02905 | 35006 ft | 532 kts | 163° |
| 2026-05-05 12:42 | 34.12363 | 118.05486 | 35007 ft | 532 kts | 163° |
| 2026-05-05 12:43 | 34.05276 | 118.08065 | 35015 ft | 531 kts | 162° |
| 2026-05-05 12:43 | 33.98197 | 118.10640 | 35017 ft | 531 kts | 162° |
| 2026-05-05 12:44 | 33.91134 | 118.13222 | 35017 ft | 531 kts | 162° |
| 2026-05-05 12:44 | 33.84065 | 118.15806 | 35017 ft | 530 kts | 162° |
| 2026-05-05 12:45 | 33.77329 | 118.19317 | 35018 ft | 526 kts | 146° |
| 2026-05-05 12:45 | 33.71361 | 118.24377 | 35021 ft | 525 kts | 140° |
| 2026-05-05 12:46 | 33.65517 | 118.29626 | 35017 ft | 525 kts | 141° |
| 2026-05-05 12:46 | 33.59602 | 118.34689 | 35023 ft | 526 kts | 142° |
| 2026-05-05 12:47 | 33.53586 | 118.39697 | 35026 ft | 524 kts | 143° |
| 2026-05-05 12:47 | 33.47593 | 118.44658 | 35024 ft | 522 kts | 144° |
| 2026-05-05 12:48 | 33.41612 | 118.49613 | 35024 ft | 522 kts | 143° |
| 2026-05-05 12:48 | 33.35663 | 118.54540 | 35024 ft | 522 kts | 143° |
| 2026-05-05 12:49 | 33.29678 | 118.59489 | 35028 ft | 522 kts | 143° |
| 2026-05-05 12:49 | 33.23702 | 118.64422 | 35027 ft | 522 kts | 144° |
| 2026-05-05 12:50 | 33.17735 | 118.69346 | 35035 ft | 518 kts | 144° |
| 2026-05-05 12:50 | 33.11823 | 118.74243 | 35034 ft | 517 kts | 144° |
| 2026-05-05 12:51 | 33.05916 | 118.79143 | 35036 ft | 517 kts | 144° |
| 2026-05-05 12:51 | 33.00011 | 118.84035 | 35036 ft | 517 kts | 144° |
| 2026-05-05 12:52 | 32.94139 | 118.88890 | 35036 ft | 517 kts | 144° |
| 2026-05-05 12:52 | 32.88229 | 118.93768 | 35036 ft | 517 kts | 144° |
| 2026-05-05 12:53 | 32.82333 | 118.98645 | 35041 ft | 515 kts | 144° |
| 2026-05-05 12:53 | 32.76467 | 119.03532 | 35040 ft | 514 kts | 144° |
| 2026-05-05 12:54 | 32.67693 | 119.10844 | 35038 ft | 513 kts | 144° |
| 2026-05-05 12:55 | 32.61849 | 119.15705 | 35040 ft | 512 kts | 144° |
| 2026-05-05 12:55 | 32.56048 | 119.20522 | 35042 ft | 511 kts | 144° |
| 2026-05-05 12:56 | 32.50212 | 119.25360 | 35041 ft | 511 kts | 145° |
| 2026-05-05 12:56 | 32.44396 | 119.30174 | 35038 ft | 509 kts | 145° |
| 2026-05-05 12:57 | 32.38596 | 119.34967 | 35041 ft | 508 kts | 145° |
| 2026-05-05 12:57 | 32.32808 | 119.39742 | 34837 ft | 509 kts | 145° |
| 2026-05-05 12:57 | 32.29906 | 119.42134 | 34447 ft | 509 kts | 145° |
| 2026-05-05 12:58 | 32.27000 | 119.44526 | 33880 ft | 508 kts | 145° |
| 2026-05-05 12:58 | 32.24102 | 119.46910 | 33232 ft | 508 kts | 144° |
| 2026-05-05 12:58 | 32.21198 | 119.49297 | 32636 ft | 509 kts | 144° |
| 2026-05-05 12:58 | 32.18289 | 119.51686 | 32052 ft | 510 kts | 144° |
| 2026-05-05 12:59 | 32.15369 | 119.54074 | 31498 ft | 511 kts | 144° |
| 2026-05-05 12:59 | 32.12448 | 119.56458 | 30924 ft | 511 kts | 144° |
| 2026-05-05 12:59 | 32.09524 | 119.58845 | 30317 ft | 512 kts | 143° |
| 2026-05-05 13:00 | 32.03704 | 119.63598 | 28971 ft | 504 kts | 143° |
| 2026-05-05 13:00 | 32.00835 | 119.65944 | 28350 ft | 499 kts | 144° |
| 2026-05-05 13:01 | 31.92696 | 119.73175 | 26504 ft | 483 kts | 131° |
| 2026-05-05 13:01 | 31.90629 | 119.76209 | 25837 ft | 476 kts | 124° |
| 2026-05-05 13:01 | 31.88809 | 119.79430 | 25183 ft | 472 kts | 121° |
| 2026-05-05 13:01 | 31.87078 | 119.82697 | 24530 ft | 468 kts | 120° |
| 2026-05-05 13:02 | 31.85365 | 119.85933 | 23894 ft | 464 kts | 121° |
| 2026-05-05 13:02 | 31.83638 | 119.89123 | 23204 ft | 461 kts | 122° |
| 2026-05-05 13:02 | 31.81894 | 119.92267 | 22492 ft | 456 kts | 123° |
| 2026-05-05 13:02 | 31.80145 | 119.95368 | 21832 ft | 452 kts | 123° |
| 2026-05-05 13:03 | 31.78992 | 119.97395 | 21424 ft | 449 kts | 123° |
| 2026-05-05 13:03 | 31.77255 | 120.00436 | 20793 ft | 445 kts | 123° |
| 2026-05-05 13:03 | 31.75527 | 120.03452 | 20179 ft | 441 kts | 124° |
| 2026-05-05 13:03 | 31.73830 | 120.06411 | 19582 ft | 437 kts | 124° |
| 2026-05-05 13:04 | 31.72134 | 120.09369 | 18976 ft | 434 kts | 124° |
| 2026-05-05 13:04 | 31.69914 | 120.13240 | 18166 ft | 429 kts | 124° |
| 2026-05-05 13:04 | 31.68792 | 120.15195 | 17712 ft | 426 kts | 124° |
| 2026-05-05 13:04 | 31.67146 | 120.18060 | 17098 ft | 421 kts | 124° |
| 2026-05-05 13:05 | 31.65524 | 120.20883 | 16502 ft | 416 kts | 124° |
| 2026-05-05 13:05 | 31.63915 | 120.23683 | 16008 ft | 411 kts | 124° |
| 2026-05-05 13:05 | 31.62315 | 120.26463 | 15628 ft | 410 kts | 124° |
| 2026-05-05 13:05 | 31.60736 | 120.29204 | 15274 ft | 407 kts | 124° |
| 2026-05-05 13:06 | 31.59192 | 120.31947 | 14939 ft | 404 kts | 120° |
| 2026-05-05 13:06 | 31.57958 | 120.34900 | 14816 ft | 402 kts | 112° |
| 2026-05-05 13:06 | 31.56964 | 120.37962 | 14729 ft | 401 kts | 109° |
| 2026-05-05 13:06 | 31.56066 | 120.41055 | 14665 ft | 401 kts | 108° |
| 2026-05-05 13:07 | 31.55191 | 120.44154 | 14605 ft | 400 kts | 108° |
| 2026-05-05 13:07 | 31.54313 | 120.47248 | 14544 ft | 400 kts | 108° |
| 2026-05-05 13:07 | 31.53425 | 120.50337 | 14333 ft | 401 kts | 108° |
| 2026-05-05 13:07 | 31.52531 | 120.53410 | 13747 ft | 396 kts | 108° |
| 2026-05-05 13:08 | 31.51639 | 120.56449 | 13113 ft | 392 kts | 109° |
| 2026-05-05 13:08 | 31.50752 | 120.59454 | 12536 ft | 388 kts | 109° |
| 2026-05-05 13:08 | 31.49872 | 120.62434 | 11984 ft | 385 kts | 109° |
| 2026-05-05 13:08 | 31.49000 | 120.65384 | 11495 ft | 380 kts | 109° |
| 2026-05-05 13:09 | 31.48138 | 120.68297 | 11222 ft | 377 kts | 109° |
| 2026-05-05 13:09 | 31.47298 | 120.71124 | 11109 ft | 356 kts | 109° |
| 2026-05-05 13:09 | 31.46514 | 120.73754 | 10992 ft | 337 kts | 109° |
| 2026-05-05 13:09 | 31.45760 | 120.76283 | 10867 ft | 320 kts | 109° |
| 2026-05-05 13:10 | 31.45044 | 120.78684 | 10747 ft | 305 kts | 109° |
| 2026-05-05 13:10 | 31.44352 | 120.81003 | 10575 ft | 300 kts | 109° |
| 2026-05-05 13:10 | 31.43667 | 120.83296 | 10193 ft | 297 kts | 109° |
| 2026-05-05 13:10 | 31.42988 | 120.85570 | 9653 ft | 297 kts | 109° |
| 2026-05-05 13:11 | 31.42305 | 120.87856 | 9088 ft | 295 kts | 110° |
| 2026-05-05 13:11 | 31.41627 | 120.90125 | 8564 ft | 295 kts | 110° |
| 2026-05-05 13:11 | 31.40948 | 120.92394 | 8095 ft | 295 kts | 111° |
| 2026-05-05 13:11 | 31.40302 | 120.94644 | 7835 ft | 286 kts | 105° |
| 2026-05-05 13:12 | 31.39960 | 120.96889 | 7787 ft | 282 kts | 98° |
| 2026-05-05 13:12 | 31.39763 | 120.99169 | 7726 ft | 280 kts | 96° |
| 2026-05-05 13:12 | 31.39604 | 121.01436 | 7671 ft | 280 kts | 96° |
| 2026-05-05 13:12 | 31.39452 | 121.03714 | 7490 ft | 281 kts | 96° |
| 2026-05-05 13:13 | 31.39304 | 121.05952 | 7068 ft | 267 kts | 96° |
| 2026-05-05 13:13 | 31.39171 | 121.08006 | 6661 ft | 247 kts | 96° |
| 2026-05-05 13:13 | 31.39044 | 121.09960 | 6278 ft | 237 kts | 97° |
| 2026-05-05 13:13 | 31.38917 | 121.11874 | 5910 ft | 235 kts | 96° |
| 2026-05-05 13:14 | 31.38788 | 121.13800 | 5563 ft | 233 kts | 97° |
| 2026-05-05 13:14 | 31.38662 | 121.15658 | 5337 ft | 232 kts | 97° |
| 2026-05-05 13:14 | 31.38536 | 121.17539 | 5240 ft | 232 kts | 97° |
| 2026-05-05 13:14 | 31.38409 | 121.19416 | 5139 ft | 232 kts | 97° |
| 2026-05-05 13:15 | 31.38293 | 121.21299 | 5002 ft | 232 kts | 95° |
| 2026-05-05 13:15 | 31.38261 | 121.23170 | 4667 ft | 223 kts | 93° |
| 2026-05-05 13:15 | 31.38267 | 121.24878 | 4256 ft | 200 kts | 94° |
| 2026-05-05 13:15 | 31.38274 | 121.26474 | 4040 ft | 195 kts | 94° |
| 2026-05-05 13:16 | 31.38279 | 121.28055 | 3934 ft | 194 kts | 93° |
| 2026-05-05 13:16 | 31.38283 | 121.29633 | 3844 ft | 194 kts | 95° |
| 2026-05-05 13:16 | 31.38043 | 121.31153 | 3613 ft | 187 kts | 120° |
| 2026-05-05 13:16 | 31.37170 | 121.32148 | 3263 ft | 177 kts | 160° |
| 2026-05-05 13:17 | 31.35969 | 121.32420 | 2970 ft | 177 kts | 174° |
| 2026-05-05 13:17 | 31.34745 | 121.32571 | 2637 ft | 176 kts | 172° |
| 2026-05-05 13:17 | 31.33540 | 121.32785 | 2382 ft | 171 kts | 172° |
| 2026-05-05 13:17 | 31.32452 | 121.32934 | 2116 ft | 147 kts | 175° |
| 2026-05-05 13:18 | 31.31464 | 121.32997 | 1965 ft | 139 kts | 177° |
| 2026-05-05 13:18 | 31.30520 | 121.33049 | 1773 ft | 136 kts | 178° |
| 2026-05-05 13:18 | 31.29575 | 121.33101 | 1609 ft | 136 kts | 177° |
| 2026-05-05 13:18 | 31.28630 | 121.33153 | 1446 ft | 135 kts | 178° |
| 2026-05-05 13:19 | 31.27698 | 121.33204 | 1256 ft | 133 kts | 177° |
| 2026-05-05 13:19 | 31.26771 | 121.33254 | 1080 ft | 134 kts | 177° |
| 2026-05-05 13:19 | 31.25825 | 121.33311 | 908 ft | 137 kts | 177° |
| 2026-05-05 13:19 | 31.24859 | 121.33353 | 717 ft | 143 kts | 176° |
| 2026-05-05 13:20 | 31.23844 | 121.33419 | 569 ft | 147 kts | 176° |
| 2026-05-05 13:20 | 31.22818 | 121.33471 | 360 ft | 149 kts | 176° |
| 2026-05-05 13:20 | 31.21793 | 121.33524 | 170 ft | 148 kts | 176° |
| 2026-05-05 13:20 | 31.20770 | 121.33577 | 30 ft | 141 kts | 175° |
| 2026-05-05 13:21 | 31.20033 | 121.33617 | 27 ft | 84 kts | 177° |
| 2026-05-05 13:21 | 31.19644 | 121.33638 | 28 ft | 36 kts | 177° |
| 2026-05-05 13:21 | 31.19426 | 121.33631 | 28 ft | 29 kts | 192° |
| 2026-05-05 13:21 | 31.19271 | 121.33558 | 27 ft | 24 kts | 206° |
| 2026-05-05 13:22 | 31.19148 | 121.33489 | 27 ft | 11 kts | 205° |
| 2026-05-05 13:22 | 31.19119 | 121.33432 | 26 ft | 7 kts | 262° |
| 2026-05-05 13:22 | 31.19117 | 121.33348 | 29 ft | 14 kts | 269° |
| 2026-05-05 13:22 | 31.19111 | 121.33214 | 26 ft | 18 kts | 267° |
| 2026-05-05 13:23 | 31.19110 | 121.33124 | 26 ft | 4 kts | 285° |
| 2026-05-05 13:23 | 31.19136 | 121.33097 | 26 ft | 8 kts | 334° |
| 2026-05-05 13:23 | 31.19211 | 121.33088 | 29 ft | 15 kts | 357° |
| 2026-05-05 13:23 | 31.19342 | 121.33081 | 27 ft | 20 kts | 358° |
| 2026-05-05 13:24 | 31.19476 | 121.33073 | 28 ft | 19 kts | 357° |
| 2026-05-05 13:24 | 31.19601 | 121.33067 | 27 ft | 16 kts | 356° |
| 2026-05-05 13:24 | 31.19654 | 121.33034 | 30 ft | 6 kts | 297° |
| 2026-05-05 13:24 | 31.19657 | 121.32980 | 26 ft | 8 kts | 267° |
| 2026-05-05 13:25 | 31.19654 | 121.32915 | 26 ft | 7 kts | 267° |
| 2026-05-05 13:25 | 31.19652 | 121.32870 | 26 ft | 5 kts | 267° |
| 2026-05-05 13:25 | 31.19652 | 121.32854 | 26 ft | 1 kts | 266° |
| 2026-05-05 13:25 | 31.19650 | 121.32824 | 26 ft | 7 kts | 267° |
| 2026-05-05 13:26 | 31.19647 | 121.32745 | 26 ft | 11 kts | 267° |
| 2026-05-05 13:26 | 31.19631 | 121.32679 | 25 ft | 3 kts | 225° |
| 2026-05-05 13:26 | 31.19605 | 121.32650 | 27 ft | 6 kts | 238° |
| 2026-05-05 13:26 | 31.19597 | 121.32601 | 27 ft | 6 kts | 268° |
| 2026-05-05 13:27 | 31.19595 | 121.32568 | 25 ft | 2 kts | 267° |
| 2026-05-05 13:27 | 31.19594 | 121.32551 | 27 ft | 2 kts | 267° |
| 2026-05-05 13:27 | 31.19594 | 121.32546 | 27 ft | 0 kts | 267° |